Time;durP1;ratioP1;P1;durP2;ratioP2;P2;SDS_P1;SDS_P2;PMS_P1;PMS_P2;Temp;Humidity;BMP_temperature;BMP_pressure;BME280_temperature;BME280_humidity;BME280_pressure;Samples;Min_cycle;Max_cycle;Signal;HPM_P1;HPM_P2
2021/07/05 00:00:17;;;;;;;3.80;1.63;;;;;23.70;99849.00;;;;2059453;28;20296;-64
2021/07/05 00:01:17;;;;;;;2.00;1.50;;;;;23.70;99838.00;;;;2059753;28;20898;-63
2021/07/05 00:02:17;;;;;;;1.70;1.60;;;;;23.70;99852.00;;;;2059802;28;20231;-64
2021/07/05 00:03:18;;;;;;;2.30;1.70;;;;;23.70;99841.00;;;;2059902;28;20222;-64
2021/07/05 00:04:18;;;;;;;2.50;1.67;;;;;23.70;99844.00;;;;2059397;28;20231;-64
2021/07/05 00:05:18;;;;;;;1.60;1.50;;;;;23.70;99832.00;;;;2058932;28;20242;-64
2021/07/05 00:06:19;;;;;;;2.43;1.77;;;;;23.70;99837.00;;;;2059016;28;20226;-64
2021/07/05 00:07:20;;;;;;;2.40;1.60;;;;;23.70;99843.00;;;;2059044;28;20687;-64
2021/07/05 00:08:20;;;;;;;2.83;1.55;;;;;23.70;99839.00;;;;2059089;28;20253;-64
2021/07/05 00:09:21;;;;;;;1.67;1.33;;;;;23.70;99836.00;;;;2059696;28;20208;-64
2021/07/05 00:10:23;;;;;;;1.87;1.40;;;;;23.70;99849.00;;;;2058996;28;20211;-64
2021/07/05 00:11:23;;;;;;;1.67;1.20;;;;;23.70;99842.00;;;;2059114;28;20223;-64
2021/07/05 00:12:24;;;;;;;1.67;1.57;;;;;23.70;99846.00;;;;2059611;28;20225;-64
2021/07/05 00:13:24;;;;;;;1.80;1.40;;;;;23.70;99850.00;;;;2058830;28;20211;-64
2021/07/05 00:14:25;;;;;;;2.23;1.40;;;;;23.70;99848.00;;;;2058915;28;20222;-64
2021/07/05 00:15:28;;;;;;;2.00;1.40;;;;;23.70;99842.00;;;;2059033;28;20219;-64
2021/07/05 00:16:29;;;;;;;3.80;1.80;;;;;23.70;99842.00;;;;2059045;28;20211;-63
2021/07/05 00:17:29;;;;;;;2.40;1.60;;;;;23.70;99847.00;;;;2059807;28;20265;-64
2021/07/05 00:18:29;;;;;;;1.70;1.60;;;;;23.70;99840.00;;;;2059920;28;20207;-64
2021/07/05 00:19:30;;;;;;;1.40;1.30;;;;;23.70;99842.00;;;;2059353;28;20211;-64
2021/07/05 00:20:31;;;;;;;2.30;1.50;;;;;23.70;99843.00;;;;2062897;28;20673;-64
2021/07/05 00:21:32;;;;;;;2.03;1.45;;;;;23.70;99837.00;;;;2065256;28;20214;-64
2021/07/05 00:22:32;;;;;;;1.73;1.60;;;;;23.70;99839.00;;;;2063576;28;20256;-64
2021/07/05 00:23:32;;;;;;;2.83;1.67;;;;;23.70;99840.00;;;;2062614;28;20207;-64
2021/07/05 00:24:33;;;;;;;1.80;1.43;;;;;23.70;99840.00;;;;2062599;28;20241;-64
2021/07/05 00:25:33;;;;;;;1.60;1.40;;;;;23.70;99843.00;;;;2059060;28;20211;-64
2021/07/05 00:26:33;;;;;;;1.80;1.47;;;;;23.70;99838.00;;;;2059061;28;21067;-64
2021/07/05 00:27:34;;;;;;;1.47;1.23;;;;;23.70;99837.00;;;;2059085;28;20555;-63
2021/07/05 00:28:34;;;;;;;1.70;1.60;;;;;23.70;99842.00;;;;2058974;28;20262;-64
2021/07/05 00:29:35;;;;;;;2.60;1.43;;;;;23.70;99844.00;;;;2059331;28;20254;-63
2021/07/05 00:30:35;;;;;;;1.53;1.30;;;;;23.70;99840.00;;;;2059424;28;20351;-63
2021/07/05 00:31:35;;;;;;;1.20;1.10;;;;;23.70;99851.00;;;;2059744;28;20234;-63
2021/07/05 00:32:36;;;;;;;1.40;1.27;;;;;23.70;99840.00;;;;2059577;28;21017;-64
2021/07/05 00:33:36;;;;;;;2.47;1.40;;;;;23.70;99838.00;;;;2059546;28;20218;-63
2021/07/05 00:34:36;;;;;;;1.57;1.40;;;;;23.70;99842.00;;;;2058637;28;20211;-63
2021/07/05 00:35:37;;;;;;;2.90;1.70;;;;;23.70;99842.00;;;;2059043;28;20277;-63
2021/07/05 00:36:37;;;;;;;2.53;1.30;;;;;23.70;99843.00;;;;2060651;28;20362;-63
2021/07/05 00:37:38;;;;;;;2.50;1.63;;;;;23.70;99804.00;;;;2060395;28;20324;-63
2021/07/05 00:38:38;;;;;;;3.50;1.40;;;;;23.70;99838.00;;;;2060548;28;20213;-63
2021/07/05 00:39:38;;;;;;;1.63;1.30;;;;;23.70;99841.00;;;;2060321;28;20585;-63
2021/07/05 00:40:39;;;;;;;1.43;1.23;;;;;23.70;99838.00;;;;2059719;28;20708;-63
2021/07/05 00:41:39;;;;;;;3.00;1.30;;;;;23.70;99833.00;;;;2060113;28;20211;-63
2021/07/05 00:42:39;;;;;;;2.00;1.30;;;;;23.70;99833.00;;;;2060698;28;20229;-64
2021/07/05 00:43:40;;;;;;;1.60;1.30;;;;;23.60;99840.00;;;;2055831;28;20214;-63
2021/07/05 00:44:40;;;;;;;2.70;1.30;;;;;23.70;99829.00;;;;2068140;28;20735;-63
2021/07/05 00:45:40;;;;;;;1.87;1.10;;;;;23.70;99827.00;;;;2064053;28;20229;-63
2021/07/05 00:46:41;;;;;;;1.80;1.43;;;;;23.60;99826.00;;;;2059956;28;20230;-63
2021/07/05 00:47:41;;;;;;;1.50;1.30;;;;;23.60;99820.00;;;;2060487;28;20221;-63
2021/07/05 00:48:42;;;;;;;1.23;1.13;;;;;23.70;99818.00;;;;2060372;28;20218;-63
2021/07/05 00:49:42;;;;;;;2.33;1.27;;;;;23.70;99811.00;;;;2060196;28;20211;-63
2021/07/05 00:50:42;;;;;;;1.83;1.33;;;;;23.70;99809.00;;;;2057949;28;20199;-63
2021/07/05 00:51:43;;;;;;;1.30;1.20;;;;;23.60;99808.00;;;;2062080;28;20203;-63
2021/07/05 00:52:44;;;;;;;1.60;1.27;;;;;23.60;99823.00;;;;2051616;28;20250;-63
2021/07/05 00:53:45;;;;;;;2.00;1.33;;;;;23.60;99823.00;;;;2048914;28;20216;-63
2021/07/05 00:54:45;;;;;;;1.50;1.40;;;;;23.60;99825.00;;;;2052441;28;21005;-64
2021/07/05 00:55:46;;;;;;;1.50;1.23;;;;;23.60;99824.00;;;;2043876;28;20265;-63
2021/07/05 00:56:46;;;;;;;1.57;1.47;;;;;23.60;99823.00;;;;2051753;28;20208;-64
2021/07/05 00:57:46;;;;;;;1.70;1.20;;;;;23.60;99823.00;;;;2060326;28;20219;-63
2021/07/05 00:58:47;;;;;;;1.77;1.20;;;;;23.60;99813.00;;;;2060383;28;20208;-63
2021/07/05 00:59:47;;;;;;;2.00;1.60;;;;;23.60;99809.00;;;;2052133;28;20571;-63
2021/07/05 01:00:48;;;;;;;2.10;1.17;;;;;23.60;99806.00;;;;2052334;28;20211;-63
2021/07/05 01:01:48;;;;;;;1.83;1.10;;;;;23.60;99801.00;;;;2061205;28;20510;-63
2021/07/05 01:02:49;;;;;;;2.83;1.50;;;;;23.60;99794.00;;;;2061205;28;20211;-63
2021/07/05 01:03:49;;;;;;;2.07;1.13;;;;;23.60;99793.00;;;;2060630;28;20203;-63
2021/07/05 01:04:49;;;;;;;1.70;1.60;;;;;23.60;99795.00;;;;2050258;28;20214;-63
2021/07/05 01:05:50;;;;;;;1.70;1.30;;;;;23.60;99798.00;;;;2067306;28;20229;-63
2021/07/05 01:06:50;;;;;;;3.10;1.60;;;;;23.60;99788.00;;;;2065598;28;20215;-63
2021/07/05 01:07:51;;;;;;;1.87;1.10;;;;;23.50;99795.00;;;;2059844;28;20223;-63
2021/07/05 01:08:51;;;;;;;1.47;1.10;;;;;23.50;99794.00;;;;2060468;28;20729;-63
2021/07/05 01:09:51;;;;;;;1.50;1.40;;;;;23.50;99798.00;;;;2060533;28;20219;-63
2021/07/05 01:10:52;;;;;;;1.17;0.97;;;;;23.50;99789.00;;;;2060238;28;20220;-63
2021/07/05 01:11:52;;;;;;;1.97;1.00;;;;;23.60;99784.00;;;;2060381;28;20689;-63
2021/07/05 01:12:53;;;;;;;1.20;1.10;;;;;23.50;99791.00;;;;2060077;28;20780;-63
2021/07/05 01:13:54;;;;;;;1.75;1.00;;;;;23.60;99785.00;;;;2059572;28;20306;-63
2021/07/05 01:14:54;;;;;;;1.53;1.00;;;;;23.60;99786.00;;;;2059578;28;20273;-63
2021/07/05 01:15:54;;;;;;;1.20;0.83;;;;;23.60;99788.00;;;;2059509;28;20242;-64
2021/07/05 01:16:55;;;;;;;1.50;1.00;;;;;23.50;99787.00;;;;2059862;28;20263;-63
2021/07/05 01:17:56;;;;;;;1.93;1.30;;;;;23.50;99786.00;;;;2062633;28;20222;-63
2021/07/05 01:18:57;;;;;;;1.33;1.05;;;;;23.50;99792.00;;;;2063634;28;20222;-63
2021/07/05 01:19:58;;;;;;;1.30;1.20;;;;;23.50;99794.00;;;;2057774;28;20266;-63
2021/07/05 01:21:01;;;;;;;2.03;1.10;;;;;23.50;99790.00;;;;2059393;28;20566;-63
2021/07/05 01:22:02;;;;;;;2.20;1.02;;;;;23.50;99788.00;;;;2064678;28;20214;-63
2021/07/05 01:23:03;;;;;;;1.90;1.30;;;;;23.50;99775.00;;;;2063131;28;20210;-63
2021/07/05 01:24:03;;;;;;;1.40;1.20;;;;;23.50;99788.00;;;;2060307;28;20220;-63
2021/07/05 01:25:05;;;;;;;1.43;1.20;;;;;23.60;99787.00;;;;2067680;28;20227;-63
2021/07/05 01:26:06;;;;;;;3.75;1.20;;;;;23.50;99787.00;;;;2063452;28;20207;-63
2021/07/05 01:27:06;;;;;;;1.03;0.93;;;;;23.60;99782.00;;;;2063429;28;20310;-63
2021/07/05 01:28:07;;;;;;;1.60;1.10;;;;;23.60;99788.00;;;;2060373;28;20226;-63
2021/07/05 01:29:08;;;;;;;2.30;1.00;;;;;23.60;99786.00;;;;2059594;28;20592;-63
2021/07/05 01:30:09;;;;;;;1.23;1.07;;;;;23.50;99788.00;;;;2059324;28;20219;-64
2021/07/05 01:31:09;;;;;;;1.10;1.00;;;;;23.50;99781.00;;;;2059495;28;20219;-63
2021/07/05 01:32:09;;;;;;;1.17;0.97;;;;;23.50;99779.00;;;;2059339;28;20223;-64
2021/07/05 01:33:10;;;;;;;1.20;1.00;;;;;23.50;99766.00;;;;2059967;28;20706;-63
2021/07/05 01:34:10;;;;;;;1.20;1.00;;;;;23.50;99772.00;;;;2056464;28;20269;-63
2021/07/05 01:35:10;;;;;;;1.87;1.23;;;;;23.50;99772.00;;;;2060320;28;20282;-64
2021/07/05 01:36:11;;;;;;;1.87;1.20;;;;;23.60;99769.00;;;;2060373;28;21055;-64
2021/07/05 01:37:12;;;;;;;1.48;1.20;;;;;23.50;99771.00;;;;2058080;28;20702;-64
2021/07/05 01:38:20;;;;;;;1.30;1.20;;;;;23.50;99767.00;;;;2061469;28;20307;-63
2021/07/05 01:39:21;;;;;;;1.60;1.00;;;;;23.50;99765.00;;;;2066722;28;20212;-63
2021/07/05 01:40:21;;;;;;;1.93;1.03;;;;;23.50;99759.00;;;;2060551;28;20703;-64
2021/07/05 01:41:22;;;;;;;1.10;1.00;;;;;23.50;99770.00;;;;2060712;28;20563;-64
2021/07/05 01:42:22;;;;;;;1.33;1.10;;;;;23.50;99770.00;;;;2060794;28;20211;-63
2021/07/05 01:43:24;;;;;;;1.60;1.20;;;;;23.50;99767.00;;;;2060808;28;20338;-63
2021/07/05 01:44:24;;;;;;;1.15;0.90;;;;;23.50;99763.00;;;;2060252;28;20321;-63
2021/07/05 01:45:26;;;;;;;2.27;0.90;;;;;23.50;99762.00;;;;2060062;28;20215;-63
2021/07/05 01:46:27;;;;;;;1.80;0.82;;;;;23.50;99763.00;;;;2059406;28;20306;-63
2021/07/05 01:47:27;;;;;;;1.33;0.90;;;;;23.50;99766.00;;;;2059533;28;20211;-63
2021/07/05 01:48:27;;;;;;;3.47;1.30;;;;;23.50;99765.00;;;;2059748;28;20218;-63
2021/07/05 01:49:28;;;;;;;1.00;0.90;;;;;23.50;99770.00;;;;2060851;28;20223;-63
2021/07/05 01:50:29;;;;;;;1.87;1.13;;;;;23.50;99770.00;;;;2060484;28;20286;-62
2021/07/05 01:51:29;;;;;;;2.13;1.10;;;;;23.50;99761.00;;;;2060736;28;20214;-63
2021/07/05 01:52:29;;;;;;;1.53;1.03;;;;;23.50;99761.00;;;;2060529;28;20461;-63
2021/07/05 01:53:30;;;;;;;1.27;1.10;;;;;23.50;99763.00;;;;2059831;28;20212;-63
2021/07/05 01:54:30;;;;;;;1.13;1.03;;;;;23.50;99759.00;;;;2059895;28;20245;-63
2021/07/05 01:55:32;;;;;;;1.17;1.07;;;;;23.50;99752.00;;;;2058934;28;20207;-63
2021/07/05 01:56:33;;;;;;;1.70;0.85;;;;;23.50;99756.00;;;;2059965;28;20211;-63
2021/07/05 01:57:34;;;;;;;1.73;1.00;;;;;23.50;99760.00;;;;2066167;28;20661;-63
2021/07/05 01:58:35;;;;;;;1.15;1.05;;;;;23.50;99765.00;;;;2065242;28;20210;-63
2021/07/05 01:59:35;;;;;;;1.60;1.00;;;;;23.50;99763.00;;;;2063711;28;20253;-64
2021/07/05 02:00:36;;;;;;;2.43;1.20;;;;;23.50;99762.00;;;;2060237;28;20211;-64
2021/07/05 02:01:37;;;;;;;1.20;1.00;;;;;23.50;99772.00;;;;2059763;28;20230;-63
2021/07/05 02:02:37;;;;;;;1.53;0.93;;;;;23.50;99770.00;;;;2059974;28;20218;-63
2021/07/05 02:03:38;;;;;;;2.00;1.10;;;;;23.50;99744.00;;;;2059666;28;20254;-63
2021/07/05 02:04:38;;;;;;;1.00;0.80;;;;;23.50;99764.00;;;;2059113;28;20589;-63
2021/07/05 02:05:39;;;;;;;0.90;0.80;;;;;23.50;99762.00;;;;2059917;28;20759;-63
2021/07/05 02:06:39;;;;;;;1.20;0.80;;;;;23.50;99761.00;;;;2060718;28;20560;-63
2021/07/05 02:07:40;;;;;;;1.13;1.03;;;;;23.50;99762.00;;;;2060591;28;20490;-63
2021/07/05 02:08:40;;;;;;;1.60;1.10;;;;;23.50;99762.00;;;;2060419;28;20306;-63
2021/07/05 02:09:40;;;;;;;1.00;0.90;;;;;23.40;99750.00;;;;2060132;28;20215;-63
2021/07/05 02:10:41;;;;;;;0.97;0.97;;;;;23.50;99752.00;;;;2056839;28;20222;-63
2021/07/05 02:11:42;;;;;;;1.90;0.83;;;;;23.50;99751.00;;;;2059855;28;20238;-63
2021/07/05 02:12:43;;;;;;;1.30;0.80;;;;;23.50;99758.00;;;;2059151;28;20768;-63
2021/07/05 02:13:43;;;;;;;1.03;0.83;;;;;23.50;99756.00;;;;2059482;28;20223;-63
2021/07/05 02:14:43;;;;;;;0.80;0.80;;;;;23.50;99753.00;;;;2060228;28;20247;-63
2021/07/05 02:15:44;;;;;;;1.17;0.97;;;;;23.50;99758.00;;;;2059678;28;20351;-63
2021/07/05 02:16:44;;;;;;;0.83;0.83;;;;;23.50;99756.00;;;;2060551;28;20223;-63
2021/07/05 02:17:45;;;;;;;2.07;0.90;;;;;23.50;99762.00;;;;2060498;28;20242;-63
2021/07/05 02:18:45;;;;;;;0.83;0.73;;;;;23.50;99753.00;;;;2059714;28;20242;-63
2021/07/05 02:19:45;;;;;;;1.10;0.90;;;;;23.50;99753.00;;;;2059713;28;20222;-63
2021/07/05 02:20:46;;;;;;;1.10;1.00;;;;;23.50;99755.00;;;;2059511;28;20220;-63
2021/07/05 02:21:46;;;;;;;1.30;0.90;;;;;23.50;99742.00;;;;2059738;28;20710;-63
2021/07/05 02:22:50;;;;;;;1.03;0.80;;;;;23.50;99747.00;;;;2060293;28;20216;-63
2021/07/05 02:23:50;;;;;;;0.93;0.88;;;;;23.50;99742.00;;;;2061670;28;20302;-64
2021/07/05 02:24:50;;;;;;;2.30;1.00;;;;;23.50;99746.00;;;;2059537;28;20220;-63
2021/07/05 02:25:51;;;;;;;0.90;0.90;;;;;23.50;99743.00;;;;2059664;28;20297;-63
2021/07/05 02:26:51;;;;;;;2.20;0.90;;;;;23.50;99739.00;;;;2059685;28;20211;-63
2021/07/05 02:27:52;;;;;;;0.80;0.80;;;;;23.50;99740.00;;;;2061970;28;20219;-63
2021/07/05 02:28:52;;;;;;;1.07;0.97;;;;;23.50;99732.00;;;;2060369;28;20211;-63
2021/07/05 02:29:53;;;;;;;1.70;0.90;;;;;23.50;99730.00;;;;2066034;28;20219;-63
2021/07/05 02:30:53;;;;;;;1.07;0.97;;;;;23.50;99734.00;;;;2059427;28;20502;-63
2021/07/05 02:31:53;;;;;;;1.50;1.00;;;;;23.50;99735.00;;;;2059648;28;20220;-63
2021/07/05 02:32:55;;;;;;;1.50;0.87;;;;;23.50;99727.00;;;;2058795;28;20243;-63
2021/07/05 02:33:55;;;;;;;1.55;0.90;;;;;23.50;99729.00;;;;2059637;28;20226;-63
2021/07/05 02:34:55;;;;;;;1.90;1.07;;;;;23.50;99717.00;;;;2059991;28;20242;-63
2021/07/05 02:35:56;;;;;;;1.30;0.80;;;;;23.50;99724.00;;;;2060311;28;20207;-63
2021/07/05 02:36:56;;;;;;;1.03;0.93;;;;;23.50;99722.00;;;;2060538;28;20232;-63
2021/07/05 02:37:58;;;;;;;1.00;0.90;;;;;23.50;99719.00;;;;2060375;28;20696;-64
2021/07/05 02:38:59;;;;;;;1.00;0.90;;;;;23.50;99727.00;;;;2060337;28;20693;-63
2021/07/05 02:39:59;;;;;;;1.10;0.90;;;;;23.50;99720.00;;;;2060483;28;20281;-63
2021/07/05 02:41:00;;;;;;;0.93;0.83;;;;;23.50;99722.00;;;;2060306;28;20220;-63
2021/07/05 02:42:00;;;;;;;1.53;1.20;;;;;23.50;99717.00;;;;2060418;28;20229;-63
2021/07/05 02:43:01;;;;;;;1.23;0.90;;;;;23.50;99722.00;;;;2059591;28;20677;-63
2021/07/05 02:44:01;;;;;;;1.37;0.77;;;;;23.50;99714.00;;;;2059684;28;20503;-63
2021/07/05 02:45:09;;;;;;;1.40;1.30;;;;;23.50;99720.00;;;;2059534;28;20693;-63
2021/07/05 02:46:09;;;;;;;0.82;0.80;;;;;23.50;99722.00;;;;2059661;28;20816;-63
2021/07/05 02:47:09;;;;;;;1.20;1.10;;;;;23.50;99727.00;;;;2060383;28;20219;-63
2021/07/05 02:48:15;;;;;;;0.93;0.70;;;;;23.50;99729.00;;;;2060438;28;20211;-63
2021/07/05 02:49:15;;;;;;;1.95;1.02;;;;;23.50;99718.00;;;;2060443;28;20207;-63
2021/07/05 02:50:16;;;;;;;0.80;0.80;;;;;23.50;99726.00;;;;2058974;28;20657;-63
2021/07/05 02:51:16;;;;;;;1.30;1.00;;;;;23.50;99727.00;;;;2058951;28;20219;-63
2021/07/05 02:52:16;;;;;;;1.07;0.93;;;;;23.50;99731.00;;;;2059480;28;20294;-63
2021/07/05 02:53:17;;;;;;;1.00;0.87;;;;;23.50;99730.00;;;;2058355;28;20251;-63
2021/07/05 02:54:17;;;;;;;0.90;0.80;;;;;23.50;99730.00;;;;2063076;28;20348;-64
2021/07/05 02:55:18;;;;;;;0.70;0.70;;;;;23.50;99722.00;;;;2063312;28;20249;-63
2021/07/05 02:56:18;;;;;;;0.97;0.90;;;;;23.50;99729.00;;;;2059989;28;20219;-63
2021/07/05 02:57:30;;;;;;;0.83;0.80;;;;;23.50;99727.00;;;;2061292;28;20219;-63
2021/07/05 02:58:31;;;;;;;1.63;0.90;;;;;23.50;99733.00;;;;2061985;28;20207;-63
2021/07/05 02:59:32;;;;;;;1.42;0.98;;;;;23.50;99733.00;;;;2061946;28;20206;-63
2021/07/05 03:00:34;;;;;;;0.80;0.80;;;;;23.50;99724.00;;;;2059299;28;20226;-63
2021/07/05 03:01:35;;;;;;;1.27;0.90;;;;;23.50;99731.00;;;;2059361;28;20364;-63
2021/07/05 03:02:35;;;;;;;0.80;0.80;;;;;23.50;99731.00;;;;2059479;28;20215;-63
2021/07/05 03:03:35;;;;;;;1.17;1.07;;;;;23.50;99728.00;;;;2059516;28;20273;-63
2021/07/05 03:04:36;;;;;;;0.73;0.73;;;;;23.50;99731.00;;;;2059448;28;20754;-63
2021/07/05 03:05:36;;;;;;;1.17;0.93;;;;;23.50;99730.00;;;;2060046;28;20294;-63
2021/07/05 03:06:37;;;;;;;1.43;1.00;;;;;23.50;99728.00;;;;2060295;28;20223;-63
2021/07/05 03:07:37;;;;;;;1.63;1.10;;;;;23.50;99728.00;;;;2060271;28;20658;-63
2021/07/05 03:08:37;;;;;;;1.17;0.80;;;;;23.50;99727.00;;;;2060173;28;20232;-63
2021/07/05 03:09:38;;;;;;;1.03;0.80;;;;;23.50;99729.00;;;;2059799;28;20320;-63
2021/07/05 03:10:39;;;;;;;1.20;1.03;;;;;23.50;99735.00;;;;2059279;28;20256;-63
2021/07/05 03:11:39;;;;;;;1.37;1.10;;;;;23.50;99725.00;;;;2059428;28;20218;-63
2021/07/05 03:12:39;;;;;;;2.00;0.90;;;;;23.50;99733.00;;;;2059528;28;20219;-63
2021/07/05 03:13:39;;;;;;;1.63;1.10;;;;;23.50;99741.00;;;;2059452;28;20211;-63
2021/07/05 03:14:40;;;;;;;1.40;1.03;;;;;23.40;99733.00;;;;2059896;28;20235;-63
2021/07/05 03:15:40;;;;;;;1.77;0.87;;;;;23.50;99734.00;;;;2060046;28;20706;-63
2021/07/05 03:16:41;;;;;;;0.90;0.70;;;;;23.50;99735.00;;;;2059794;28;20701;-63
2021/07/05 03:17:42;;;;;;;1.00;0.90;;;;;23.50;99730.00;;;;2059440;28;20225;-63
2021/07/05 03:18:42;;;;;;;1.07;0.67;;;;;23.50;99732.00;;;;2058973;28;20552;-63
2021/07/05 03:19:44;;;;;;;1.40;0.80;;;;;23.50;99724.00;;;;2058683;28;20858;-63
2021/07/05 03:20:46;;;;;;;1.00;0.90;;;;;23.50;99724.00;;;;2058786;28;20669;-63
2021/07/05 03:21:46;;;;;;;1.75;0.77;;;;;23.50;99728.00;;;;2059169;28;20226;-63
2021/07/05 03:22:48;;;;;;;1.80;1.10;;;;;23.50;99724.00;;;;2059860;28;20219;-63
2021/07/05 03:23:48;;;;;;;1.98;0.77;;;;;23.50;99729.00;;;;2059598;28;21000;-63
2021/07/05 03:24:48;;;;;;;1.10;0.87;;;;;23.50;99734.00;;;;2059749;28;20230;-63
2021/07/05 03:25:49;;;;;;;1.67;0.63;;;;;23.50;99730.00;;;;2060040;28;20245;-63
2021/07/05 03:26:49;;;;;;;0.87;0.83;;;;;23.40;99723.00;;;;2059247;28;20219;-64
2021/07/05 03:27:49;;;;;;;1.00;0.90;;;;;23.50;99733.00;;;;2060935;28;20215;-63
2021/07/05 03:28:50;;;;;;;1.67;0.80;;;;;23.50;99739.00;;;;2059473;28;20305;-64
2021/07/05 03:29:50;;;;;;;1.10;1.00;;;;;23.50;99730.00;;;;2065474;28;20246;-63
2021/07/05 03:30:51;;;;;;;1.23;1.13;;;;;23.50;99734.00;;;;2059185;28;20223;-63
2021/07/05 03:31:52;;;;;;;1.20;0.68;;;;;23.50;99736.00;;;;2059213;28;20215;-63
2021/07/05 03:32:52;;;;;;;1.23;0.60;;;;;23.50;99740.00;;;;2059061;28;20627;-63
2021/07/05 03:33:52;;;;;;;1.00;0.80;;;;;23.50;99738.00;;;;2059321;28;20594;-63
2021/07/05 03:34:53;;;;;;;1.10;0.80;;;;;23.50;99737.00;;;;2059452;28;20705;-63
2021/07/05 03:35:53;;;;;;;1.53;1.20;;;;;23.50;99744.00;;;;2059986;28;20706;-63
2021/07/05 03:36:53;;;;;;;1.10;0.90;;;;;23.50;99740.00;;;;2059954;28;20717;-63
2021/07/05 03:37:54;;;;;;;1.10;1.00;;;;;23.50;99741.00;;;;2060052;28;20681;-63
2021/07/05 03:38:54;;;;;;;1.87;0.97;;;;;23.50;99737.00;;;;2059877;28;20242;-63
2021/07/05 03:39:54;;;;;;;1.00;0.93;;;;;23.50;99734.00;;;;2059192;28;20265;-63
2021/07/05 03:40:55;;;;;;;1.00;0.90;;;;;23.50;99735.00;;;;2058962;28;20249;-63
2021/07/05 03:41:55;;;;;;;1.53;1.03;;;;;23.50;99747.00;;;;2059072;28;20211;-63
2021/07/05 03:42:55;;;;;;;0.90;0.80;;;;;23.50;99742.00;;;;2059031;28;20259;-63
2021/07/05 03:43:56;;;;;;;1.60;0.90;;;;;23.50;99741.00;;;;2059630;28;20304;-63
2021/07/05 03:44:56;;;;;;;1.00;0.87;;;;;23.50;99747.00;;;;2059973;28;20238;-63
2021/07/05 03:45:57;;;;;;;1.37;0.80;;;;;23.50;99740.00;;;;2059953;28;20242;-63
2021/07/05 03:46:57;;;;;;;0.93;0.83;;;;;23.50;99746.00;;;;2059930;28;20238;-63
2021/07/05 03:47:58;;;;;;;1.07;0.97;;;;;23.50;99740.00;;;;2059113;28;20280;-63
2021/07/05 03:48:58;;;;;;;1.00;0.90;;;;;23.50;99743.00;;;;2059200;28;20229;-63
2021/07/05 03:49:58;;;;;;;1.10;0.90;;;;;23.50;99737.00;;;;2059127;28;20458;-63
2021/07/05 03:50:59;;;;;;;1.00;0.90;;;;;23.50;99736.00;;;;2058962;28;20291;-64
2021/07/05 03:51:59;;;;;;;1.20;1.07;;;;;23.50;99742.00;;;;2059165;28;20216;-63
2021/07/05 03:52:59;;;;;;;0.90;0.90;;;;;23.50;99738.00;;;;2059973;28;20215;-63
2021/07/05 03:54:00;;;;;;;1.10;1.00;;;;;23.50;99741.00;;;;2059261;28;20226;-63
2021/07/05 03:55:00;;;;;;;0.83;0.77;;;;;23.50;99737.00;;;;2062132;28;20246;-63
2021/07/05 03:56:03;;;;;;;1.17;1.00;;;;;23.50;99738.00;;;;2060176;28;20216;-63
2021/07/05 03:57:04;;;;;;;1.00;0.90;;;;;23.50;99741.00;;;;2063904;28;20211;-63
2021/07/05 03:58:04;;;;;;;1.00;0.90;;;;;23.50;99742.00;;;;2059089;28;20622;-63
2021/07/05 03:59:05;;;;;;;1.77;0.70;;;;;23.50;99735.00;;;;2058987;28;20505;-63
2021/07/05 04:00:07;;;;;;;1.10;0.90;;;;;23.50;99732.00;;;;2057938;28;20211;-63
2021/07/05 04:01:08;;;;;;;1.08;0.98;;;;;23.50;99732.00;;;;2058315;28;20229;-63
2021/07/05 04:02:08;;;;;;;2.57;1.10;;;;;23.50;99731.00;;;;2058634;28;20242;-63
2021/07/05 04:03:09;;;;;;;1.57;0.90;;;;;23.50;99732.00;;;;2058694;28;20246;-63
2021/07/05 04:04:09;;;;;;;0.80;0.77;;;;;23.50;99732.00;;;;2058556;28;20219;-63
2021/07/05 04:05:10;;;;;;;1.00;0.90;;;;;23.50;99736.00;;;;2059608;28;20750;-63
2021/07/05 04:06:10;;;;;;;1.10;1.00;;;;;23.50;99731.00;;;;2059579;28;20590;-63
2021/07/05 04:07:10;;;;;;;1.00;0.80;;;;;23.50;99730.00;;;;2059473;28;20219;-63
2021/07/05 04:08:11;;;;;;;1.30;0.73;;;;;23.50;99739.00;;;;2054431;28;20257;-63
2021/07/05 04:09:11;;;;;;;1.23;0.87;;;;;23.50;99729.00;;;;2065953;28;20214;-64
2021/07/05 04:10:12;;;;;;;0.90;0.90;;;;;23.50;99732.00;;;;2060951;28;20237;-63
2021/07/05 04:11:12;;;;;;;1.45;1.10;;;;;23.50;99737.00;;;;2058468;28;20215;-63
2021/07/05 04:12:13;;;;;;;0.80;0.80;;;;;23.50;99728.00;;;;2058396;28;20211;-63
2021/07/05 04:13:14;;;;;;;1.17;0.83;;;;;23.50;99728.00;;;;2059226;28;20220;-63
2021/07/05 04:14:14;;;;;;;0.80;0.70;;;;;23.50;99732.00;;;;2059064;28;20211;-63
2021/07/05 04:15:15;;;;;;;1.00;0.90;;;;;23.50;99724.00;;;;2058910;28;20293;-63
2021/07/05 04:16:15;;;;;;;1.37;0.80;;;;;23.50;99728.00;;;;2059359;28;20224;-63
2021/07/05 04:17:16;;;;;;;1.17;0.87;;;;;23.50;99732.00;;;;2058752;28;20696;-63
2021/07/05 04:18:17;;;;;;;0.80;0.80;;;;;23.50;99737.00;;;;2058585;28;20293;-63
2021/07/05 04:19:17;;;;;;;1.33;0.77;;;;;23.50;99727.00;;;;2058621;28;20613;-63
2021/07/05 04:20:19;;;;;;;1.10;0.97;;;;;23.50;99732.00;;;;2058395;28;20223;-63
2021/07/05 04:21:21;;;;;;;1.63;0.88;;;;;23.50;99730.00;;;;2058740;28;20711;-63
2021/07/05 04:22:21;;;;;;;1.10;0.80;;;;;23.50;99725.00;;;;2059385;28;20203;-63
2021/07/05 04:23:24;;;;;;;1.10;1.00;;;;;23.50;99728.00;;;;2059370;28;20219;-63
2021/07/05 04:24:24;;;;;;;1.23;0.80;;;;;23.50;99731.00;;;;2061528;28;20276;-63
2021/07/05 04:25:25;;;;;;;1.10;1.00;;;;;23.50;99724.00;;;;2063982;28;20214;-63
2021/07/05 04:26:25;;;;;;;1.03;0.93;;;;;23.50;99727.00;;;;2062009;28;20318;-63
2021/07/05 04:27:25;;;;;;;1.10;0.97;;;;;23.50;99723.00;;;;2059258;28;20227;-63
2021/07/05 04:28:26;;;;;;;1.17;1.07;;;;;23.50;99732.00;;;;2059395;28;20265;-63
2021/07/05 04:29:26;;;;;;;1.20;0.80;;;;;23.50;99732.00;;;;2055654;28;20272;-63
2021/07/05 04:30:27;;;;;;;1.60;1.00;;;;;23.50;99734.00;;;;2065633;28;20217;-63
2021/07/05 04:31:27;;;;;;;0.82;0.80;;;;;23.50;99735.00;;;;2059854;28;20214;-62
2021/07/05 04:32:28;;;;;;;0.80;0.80;;;;;23.50;99732.00;;;;2057998;28;20327;-63
2021/07/05 04:33:28;;;;;;;0.87;0.87;;;;;23.50;99742.00;;;;2058924;28;20231;-63
2021/07/05 04:34:28;;;;;;;0.80;0.77;;;;;23.50;99730.00;;;;2059639;28;20227;-63
2021/07/05 04:35:29;;;;;;;1.10;1.00;;;;;23.50;99745.00;;;;2059799;28;20678;-63
2021/07/05 04:36:29;;;;;;;0.90;0.60;;;;;23.50;99748.00;;;;2059608;28;21247;-63
2021/07/05 04:37:29;;;;;;;1.10;1.00;;;;;23.50;99752.00;;;;2059314;28;20219;-63
2021/07/05 04:38:30;;;;;;;1.17;1.07;;;;;23.50;99750.00;;;;2058807;28;20257;-63
2021/07/05 04:39:30;;;;;;;1.30;0.90;;;;;23.50;99759.00;;;;2058812;28;20218;-63
2021/07/05 04:40:33;;;;;;;0.90;0.90;;;;;23.50;99757.00;;;;2058613;28;20222;-63
2021/07/05 04:41:33;;;;;;;1.00;0.80;;;;;23.50;99758.00;;;;2058777;28;20223;-63
2021/07/05 04:42:34;;;;;;;2.77;0.90;;;;;23.50;99757.00;;;;2059607;28;20211;-63
2021/07/05 04:43:34;;;;;;;1.00;0.90;;;;;23.50;99759.00;;;;2059795;28;20447;-63
2021/07/05 04:44:35;;;;;;;2.00;0.97;;;;;23.50;99759.00;;;;2059564;28;20270;-63
2021/07/05 04:45:37;;;;;;;1.63;0.97;;;;;23.50;99759.00;;;;2059751;28;20292;-63
2021/07/05 04:46:39;;;;;;;0.98;0.88;;;;;23.50;99756.00;;;;2059013;28;20270;-63
2021/07/05 04:47:39;;;;;;;2.08;0.90;;;;;23.50;99762.00;;;;2058804;28;20593;-63
2021/07/05 04:48:39;;;;;;;0.80;0.80;;;;;23.50;99761.00;;;;2058849;28;20219;-63
2021/07/05 04:49:40;;;;;;;1.03;0.93;;;;;23.50;99754.00;;;;2058831;28;20223;-63
2021/07/05 04:50:40;;;;;;;1.73;1.00;;;;;23.50;99763.00;;;;2059339;28;20223;-63
2021/07/05 04:51:40;;;;;;;3.13;1.07;;;;;23.50;99764.00;;;;2058910;28;20662;-63
2021/07/05 04:52:41;;;;;;;1.30;1.00;;;;;23.50;99763.00;;;;2059570;28;20216;-63
2021/07/05 04:53:42;;;;;;;1.87;0.93;;;;;23.50;99770.00;;;;2059740;28;20273;-63
2021/07/05 04:54:42;;;;;;;1.00;0.90;;;;;23.30;99772.00;;;;2063182;28;20218;-63
2021/07/05 04:55:42;;;;;;;2.50;1.27;;;;;23.50;99773.00;;;;2062735;28;20226;-63
2021/07/05 04:56:43;;;;;;;2.27;1.13;;;;;23.50;99778.00;;;;2063994;28;20217;-63
2021/07/05 04:57:43;;;;;;;2.33;1.10;;;;;23.40;99782.00;;;;2059604;28;20234;-63
2021/07/05 04:58:44;;;;;;;1.13;0.70;;;;;23.50;99789.00;;;;2056516;28;20226;-63
2021/07/05 04:59:44;;;;;;;3.70;1.07;;;;;23.50;99784.00;;;;2058801;28;20231;-63
2021/07/05 05:00:44;;;;;;;1.67;1.10;;;;;23.50;99785.00;;;;2057902;28;20293;-63
2021/07/05 05:01:45;;;;;;;1.20;0.97;;;;;23.50;99793.00;;;;2057973;28;20226;-63
2021/07/05 05:02:46;;;;;;;2.10;0.90;;;;;23.50;99788.00;;;;2056862;28;20652;-63
2021/07/05 05:03:46;;;;;;;3.33;0.93;;;;;23.50;99789.00;;;;2058655;28;21003;-63